createdAt,value
2022-08-04T00:00:05.743Z,29.04
2022-08-04T00:02:50.722Z,29.08
2022-08-04T00:05:29.409Z,29.03
2022-08-04T00:08:35.108Z,29.02
2022-08-04T00:11:02.472Z,28.96
2022-08-04T00:13:32.240Z,28.10
2022-08-04T00:16:02.976Z,28.04
2022-08-04T00:18:41.677Z,28.57
2022-08-04T00:21:14.859Z,27.98
2022-08-04T00:24:11.701Z,27.77
2022-08-04T00:26:31.264Z,28.16
2022-08-04T00:28:58.008Z,27.90
2022-08-04T00:31:53.655Z,28.37
2022-08-04T00:34:13.874Z,27.91
2022-08-04T00:36:44.092Z,28.55
2022-08-04T00:39:16.089Z,28.47
2022-08-04T00:41:56.105Z,28.60
2022-08-04T00:44:30.583Z,28.55
2022-08-04T00:47:24.303Z,28.53
2022-08-04T00:50:00.164Z,28.37
2022-08-04T00:52:35.641Z,28.52
2022-08-04T00:55:26.971Z,28.40
2022-08-04T00:58:21.246Z,28.43
2022-08-04T01:01:02.871Z,28.39
2022-08-04T01:03:49.462Z,28.36
2022-08-04T01:06:35.153Z,28.10
2022-08-04T01:09:40.936Z,28.13
2022-08-04T01:12:26.083Z,27.85
2022-08-04T01:15:17.811Z,27.09
2022-08-04T01:18:37.173Z,27.64
2022-08-04T01:21:21.826Z,27.64
2022-08-04T01:24:14.624Z,27.49
2022-08-04T01:27:20.767Z,27.52
2022-08-04T01:29:57.140Z,27.30
2022-08-04T01:32:26.581Z,27.43
2022-08-04T01:35:46.888Z,27.44
2022-08-04T01:38:21.445Z,27.70
2022-08-04T01:40:53.278Z,27.52
2022-08-04T01:43:21.283Z,27.46
2022-08-04T01:45:57.569Z,27.67
2022-08-04T01:48:25.602Z,27.86
2022-08-04T01:51:12.382Z,27.27
2022-08-04T01:53:41.561Z,27.84
2022-08-04T01:56:10.364Z,27.08
2022-08-04T01:58:38.642Z,27.63
2022-08-04T02:01:12.183Z,27.05
2022-08-04T02:04:19.481Z,27.61
2022-08-04T02:06:34.827Z,27.52
2022-08-04T02:09:15.774Z,26.74
2022-08-04T02:11:49.700Z,26.79
2022-08-04T02:14:41.460Z,27.46
2022-08-04T02:17:31.577Z,27.29
2022-08-04T02:20:07.381Z,27.45
2022-08-04T02:22:38.722Z,27.27
2022-08-04T02:25:09.209Z,26.90
2022-08-04T02:28:13.435Z,27.35
2022-08-04T02:31:07.965Z,27.33
2022-08-04T02:33:38.408Z,27.20
2022-08-04T02:36:09.355Z,27.07
2022-08-04T02:38:41.917Z,27.29
2022-08-04T02:41:09.860Z,27.14
2022-08-04T02:43:51.018Z,26.66
2022-08-04T02:46:20.356Z,26.82
2022-08-04T02:48:48.808Z,27.05
2022-08-04T02:51:17.862Z,26.31
2022-08-04T02:53:46.242Z,26.56
2022-08-04T02:56:17.929Z,26.84
2022-08-04T02:58:49.296Z,26.72
2022-08-04T03:01:15.841Z,26.03
2022-08-04T03:03:59.525Z,26.46
2022-08-04T03:06:44.394Z,26.71
2022-08-04T03:09:50.183Z,26.64
2022-08-04T03:12:19.295Z,26.77
2022-08-04T03:15:20.042Z,26.72
2022-08-04T03:18:23.758Z,26.76
2022-08-04T03:21:24.389Z,26.65
2022-08-04T03:24:13.464Z,26.42
2022-08-04T03:27:11.153Z,26.48
2022-08-04T03:29:55.273Z,26.50
2022-08-04T03:32:59.395Z,26.56
2022-08-04T03:36:10.902Z,26.50
2022-08-04T03:39:14.800Z,26.35
2022-08-04T03:42:08.064Z,26.35
2022-08-04T03:45:23.148Z,26.38
2022-08-04T03:48:11.682Z,26.35
2022-08-04T03:51:36.318Z,26.31
2022-08-04T03:54:11.931Z,26.25
2022-08-04T03:57:09.452Z,26.10
2022-08-04T04:00:09.111Z,25.87
2022-08-04T04:03:00.848Z,25.77
2022-08-04T04:05:56.050Z,25.84
2022-08-04T04:08:48.064Z,25.74
2022-08-04T04:11:25.079Z,25.67
2022-08-04T04:14:18.066Z,25.50
2022-08-04T04:17:15.024Z,25.68
2022-08-04T04:19:58.369Z,25.70
2022-08-04T04:23:03.011Z,25.71
2022-08-04T04:25:48.173Z,25.50
2022-08-04T04:28:45.137Z,25.66
2022-08-04T04:31:22.011Z,25.61
2022-08-04T04:34:26.578Z,25.09
2022-08-04T04:37:08.169Z,25.46
2022-08-04T04:39:49.746Z,25.51
2022-08-04T04:42:28.402Z,25.54
2022-08-04T04:44:57.780Z,25.63
2022-08-04T04:48:07.171Z,25.71
2022-08-04T04:50:53.303Z,25.75
2022-08-04T04:53:42.370Z,25.31
2022-08-04T04:56:17.727Z,25.44
2022-08-04T04:58:44.199Z,25.38
2022-08-04T05:01:28.925Z,25.84
2022-08-04T05:04:21.579Z,25.84
2022-08-04T05:06:54.239Z,25.79
2022-08-04T05:09:42.703Z,25.75
2022-08-04T05:14:32.794Z,25.56
2022-08-04T05:15:12.490Z,25.72
2022-08-04T05:17:41.901Z,25.95
2022-08-04T05:20:13.044Z,25.85
2022-08-04T05:23:01.032Z,25.83
2022-08-04T05:25:59.520Z,25.75
2022-08-04T05:28:38.085Z,26.10
2022-08-04T05:31:11.957Z,26.00
2022-08-04T05:33:43.210Z,26.10
2022-08-04T05:36:29.446Z,26.12
2022-08-04T05:39:07.277Z,26.18
2022-08-04T05:41:45.555Z,26.51
2022-08-04T05:44:15.075Z,26.57
2022-08-04T05:46:43.656Z,26.65
2022-08-04T05:49:12.718Z,26.69
2022-08-04T05:51:47.760Z,26.69
2022-08-04T05:54:15.348Z,26.83
2022-08-04T05:56:42.967Z,26.88
2022-08-04T05:59:12.620Z,26.92
2022-08-04T06:01:56.439Z,27.10
2022-08-04T06:04:32.166Z,26.70
2022-08-04T06:06:58.723Z,27.29
2022-08-04T06:09:25.272Z,27.45
2022-08-04T06:12:01.897Z,26.83
2022-08-04T06:14:37.591Z,27.28
2022-08-04T06:18:32.067Z,27.77
2022-08-04T06:20:03.138Z,27.77
2022-08-04T06:22:45.179Z,27.86
2022-08-04T06:25:16.702Z,27.96
2022-08-04T06:27:44.379Z,27.83
2022-08-04T06:30:14.399Z,27.79
2022-08-04T06:33:03.562Z,27.98
2022-08-04T06:35:31.842Z,27.63
2022-08-04T06:38:01.221Z,28.21
2022-08-04T06:40:33.290Z,27.73
2022-08-04T06:43:07.815Z,28.22
2022-08-04T06:45:37.842Z,28.42
2022-08-04T06:48:06.677Z,28.56
2022-08-04T06:51:24.987Z,28.65
2022-08-04T06:53:24.169Z,28.55
2022-08-04T06:55:51.789Z,28.52
2022-08-04T06:58:21.734Z,28.65
2022-08-04T07:00:49.482Z,28.50
2022-08-04T07:03:18.091Z,28.80
2022-08-04T07:05:47.795Z,28.70
2022-08-04T07:08:14.678Z,28.87
2022-08-04T07:10:41.545Z,29.05
2022-08-04T07:13:09.568Z,29.10
2022-08-04T07:15:38.754Z,28.65
2022-08-04T07:18:05.360Z,28.99
2022-08-04T07:20:35.289Z,28.90
2022-08-04T07:23:05.813Z,28.85
2022-08-04T07:26:01.124Z,29.40
2022-08-04T07:28:24.230Z,29.46
2022-08-04T07:30:50.969Z,28.78
2022-08-04T07:33:18.414Z,29.10
2022-08-04T07:36:09.224Z,29.69
2022-08-04T07:38:50.875Z,29.26
2022-08-04T07:41:38.278Z,29.35
2022-08-04T07:44:05.545Z,29.72
2022-08-04T07:46:32.290Z,29.99
2022-08-04T07:49:01.151Z,30.01
2022-08-04T07:51:28.918Z,30.04
2022-08-04T07:53:56.791Z,30.13
2022-08-04T07:56:24.535Z,30.40
2022-08-04T07:58:50.977Z,30.42
2022-08-04T08:01:19.341Z,30.06
2022-08-04T08:03:46.506Z,29.94
2022-08-04T08:06:31.018Z,30.92
2022-08-04T08:09:01.967Z,30.69
2022-08-04T08:12:35.823Z,31.05
2022-08-04T08:14:28.232Z,30.80
2022-08-04T08:16:54.734Z,30.57
2022-08-04T08:19:21.156Z,30.90
2022-08-04T08:21:59.588Z,30.86
2022-08-04T08:24:28.268Z,30.61
2022-08-04T08:26:55.891Z,31.16
2022-08-04T08:29:22.692Z,31.02
2022-08-04T08:31:55.554Z,31.12
2022-08-04T08:34:30.523Z,31.12
2022-08-04T08:37:19.996Z,31.49
2022-08-04T08:39:59.459Z,31.50
2022-08-04T08:42:46.674Z,31.41
2022-08-04T08:45:32.041Z,31.87
2022-08-04T08:48:36.225Z,31.95
2022-08-04T08:51:17.177Z,31.93
2022-08-04T08:54:05.541Z,32.12
2022-08-04T08:57:00.793Z,32.22
2022-08-04T09:00:02.808Z,32.45
2022-08-04T09:03:04.234Z,32.54
2022-08-04T09:05:42.899Z,32.76
2022-08-04T09:08:22.479Z,32.46
2022-08-04T09:10:54.026Z,32.87
2022-08-04T09:13:30.545Z,32.89
2022-08-04T09:16:16.362Z,32.97
2022-08-04T09:19:02.518Z,32.62
2022-08-04T09:21:33.849Z,33.23
2022-08-04T09:24:35.722Z,32.44
2022-08-04T09:27:03.506Z,33.02
2022-08-04T09:29:35.957Z,33.23
2022-08-04T09:32:29.782Z,33.03
2022-08-04T09:35:19.168Z,33.21
2022-08-04T09:37:59.303Z,32.78
2022-08-04T09:40:53.436Z,33.17
2022-08-04T09:43:59.022Z,33.12
2022-08-04T09:46:43.514Z,32.97
2022-08-04T09:49:18.277Z,32.82
2022-08-04T09:51:57.261Z,33.10
2022-08-04T09:54:51.991Z,33.05
2022-08-04T09:57:47.530Z,33.24
2022-08-04T10:00:16.962Z,33.14
2022-08-04T10:02:52.181Z,33.18
2022-08-04T10:05:22.956Z,33.33
2022-08-04T10:08:24.510Z,33.33
2022-08-04T10:11:03.851Z,33.33
2022-08-04T10:13:51.883Z,33.51
2022-08-04T10:16:38.287Z,33.50
2022-08-04T10:19:28.874Z,33.32
2022-08-04T10:22:28.377Z,33.56
2022-08-04T10:26:03.628Z,33.54
2022-08-04T10:28:15.498Z,33.34
2022-08-04T10:30:49.185Z,33.32
2022-08-04T10:33:25.746Z,33.64
2022-08-04T10:36:00.152Z,33.88
2022-08-04T10:38:33.486Z,33.95
2022-08-04T10:41:25.127Z,33.99
2022-08-04T10:44:12.354Z,33.88
2022-08-04T10:46:49.890Z,33.39
2022-08-04T10:49:24.081Z,33.74
2022-08-04T10:51:59.788Z,33.64
2022-08-04T10:54:43.805Z,33.56
2022-08-04T10:57:41.433Z,33.17
2022-08-04T11:00:10.447Z,33.27
2022-08-04T11:02:49.192Z,33.15
2022-08-04T11:05:27.908Z,33.20
2022-08-04T11:08:01.539Z,33.23
2022-08-04T11:10:33.116Z,33.30
2022-08-04T11:13:07.945Z,33.23
2022-08-04T11:15:57.955Z,32.65
2022-08-04T11:18:54.232Z,33.32
2022-08-04T11:21:28.283Z,33.16
2022-08-04T11:24:11.667Z,32.98
2022-08-04T11:26:48.179Z,32.96
2022-08-04T11:29:28.530Z,32.52
2022-08-04T11:31:59.997Z,32.34
2022-08-04T11:34:27.701Z,32.62
2022-08-04T11:37:06.162Z,32.63
2022-08-04T11:39:43.901Z,32.66
2022-08-04T11:42:10.364Z,32.69
2022-08-04T11:44:55.115Z,32.56
2022-08-04T11:47:24.599Z,32.56
2022-08-04T11:50:05.450Z,32.46
2022-08-04T11:52:34.260Z,32.57
2022-08-04T11:55:07.055Z,32.23
2022-08-04T11:57:36.460Z,32.70
2022-08-04T12:00:07.632Z,32.86
2022-08-04T12:02:47.782Z,32.96
2022-08-04T12:05:23.269Z,33.01
2022-08-04T12:08:24.194Z,33.09
2022-08-04T12:11:08.221Z,33.27
2022-08-04T12:13:41.966Z,33.25
2022-08-04T12:16:11.279Z,33.34
2022-08-04T12:18:40.440Z,33.32
2022-08-04T12:21:53.082Z,32.91
2022-08-04T12:24:27.711Z,33.42
2022-08-04T12:26:58.498Z,33.47
2022-08-04T12:29:30.429Z,33.36
2022-08-04T12:32:32.979Z,33.36
2022-08-04T12:35:36.994Z,33.44
2022-08-04T12:38:06.610Z,33.08
2022-08-04T12:40:46.389Z,33.23
2022-08-04T12:43:24.637Z,33.26
2022-08-04T12:45:54.862Z,33.10
2022-08-04T12:48:26.544Z,32.96
2022-08-04T12:50:55.785Z,33.12
2022-08-04T12:53:32.017Z,32.61
2022-08-04T12:56:01.949Z,33.19
2022-08-04T12:58:43.042Z,32.69
2022-08-04T13:02:06.952Z,33.19
2022-08-04T13:04:34.296Z,33.24
2022-08-04T13:07:18.497Z,32.97
2022-08-04T13:09:46.329Z,32.98
2022-08-04T13:12:14.297Z,32.65
2022-08-04T13:14:45.661Z,32.96
2022-08-04T13:17:12.538Z,32.53
2022-08-04T13:19:45.497Z,32.61
2022-08-04T13:22:16.171Z,33.00
2022-08-04T13:24:56.812Z,32.58
2022-08-04T13:27:43.470Z,32.82
2022-08-04T13:30:12.078Z,32.88
2022-08-04T13:32:55.441Z,32.88
2022-08-04T13:35:22.672Z,32.79
2022-08-04T13:37:50.219Z,32.95
2022-08-04T13:40:21.385Z,32.88
2022-08-04T13:42:51.345Z,32.94
2022-08-04T13:45:22.864Z,33.07
2022-08-04T13:47:51.709Z,32.91
2022-08-04T13:50:27.466Z,32.94
2022-08-04T13:52:55.883Z,32.25
2022-08-04T13:55:36.707Z,32.55
2022-08-04T13:58:09.670Z,32.32
2022-08-04T14:00:44.083Z,32.69
2022-08-04T14:03:19.051Z,32.62
2022-08-04T14:06:15.920Z,32.68
2022-08-04T14:08:58.053Z,32.74
2022-08-04T14:12:09.085Z,32.62
2022-08-04T14:14:29.678Z,32.63
2022-08-04T14:17:05.690Z,32.67
2022-08-04T14:19:50.605Z,32.76
2022-08-04T14:22:26.143Z,32.75
2022-08-04T14:25:16.283Z,32.72
2022-08-04T14:27:55.961Z,32.55
2022-08-04T14:30:24.350Z,32.46
2022-08-04T14:34:01.035Z,32.50
2022-08-04T14:35:58.709Z,32.53
2022-08-04T14:38:42.760Z,32.59
2022-08-04T14:41:10.056Z,32.59
2022-08-04T14:43:56.228Z,32.60
2022-08-04T14:46:24.335Z,32.55
2022-08-04T14:49:11.880Z,32.17
2022-08-04T14:51:43.603Z,31.93
2022-08-04T14:54:17.727Z,32.31
2022-08-04T14:56:54.376Z,31.97
2022-08-04T14:59:21.561Z,32.17
2022-08-04T15:02:01.291Z,32.27
2022-08-04T15:04:31.257Z,32.25
2022-08-04T15:06:57.819Z,32.45
2022-08-04T15:09:24.623Z,32.46
2022-08-04T15:11:51.033Z,31.88
2022-08-04T15:14:37.811Z,31.86
2022-08-04T15:17:11.457Z,32.44
2022-08-04T15:19:39.513Z,32.34
2022-08-04T15:22:07.221Z,31.69
2022-08-04T15:24:43.975Z,32.18
2022-08-04T15:27:13.467Z,32.16
2022-08-04T15:30:00.059Z,32.10
2022-08-04T15:32:31.874Z,32.16
2022-08-04T15:35:12.979Z,31.80
2022-08-04T15:37:57.823Z,32.24
2022-08-04T15:40:33.630Z,32.39
2022-08-04T15:43:11.107Z,31.61
2022-08-04T15:46:43.396Z,32.09
2022-08-04T15:48:41.750Z,31.90
2022-08-04T15:51:14.561Z,31.83
2022-08-04T15:54:02.322Z,32.14
2022-08-04T15:56:28.352Z,32.16
2022-08-04T15:58:56.982Z,31.99
2022-08-04T16:01:23.759Z,31.87
2022-08-04T16:03:59.052Z,32.30
2022-08-04T16:06:29.751Z,32.70
2022-08-04T16:09:04.742Z,32.87
2022-08-04T16:11:37.005Z,32.81
2022-08-04T16:14:03.811Z,32.86
2022-08-04T16:16:43.690Z,32.85
2022-08-04T16:19:48.919Z,32.94
2022-08-04T16:22:40.256Z,33.15
2022-08-04T16:25:08.638Z,32.93
2022-08-04T16:27:43.931Z,33.20
2022-08-04T16:30:14.936Z,33.20
2022-08-04T16:32:43.766Z,33.50
2022-08-04T16:35:28.539Z,32.90
2022-08-04T16:38:17.880Z,33.42
2022-08-04T16:40:44.608Z,32.62
2022-08-04T16:43:14.172Z,32.95
2022-08-04T16:45:43.128Z,32.81
2022-08-04T16:48:10.787Z,32.45
2022-08-04T16:50:52.181Z,32.91
2022-08-04T16:53:52.288Z,33.04
2022-08-04T16:56:10.400Z,32.73
2022-08-04T16:58:37.141Z,32.23
2022-08-04T17:01:22.005Z,32.53
2022-08-04T17:04:04.694Z,32.50
2022-08-04T17:06:39.400Z,32.38
2022-08-04T17:09:17.152Z,32.40
2022-08-04T17:11:45.528Z,32.34
2022-08-04T17:14:13.318Z,31.94
2022-08-04T17:16:42.211Z,31.41
2022-08-04T17:19:24.023Z,31.36
2022-08-04T17:22:00.403Z,31.65
2022-08-04T17:24:29.183Z,31.60
2022-08-04T17:26:58.039Z,31.53
2022-08-04T17:29:43.910Z,31.73
2022-08-04T17:32:21.187Z,31.55
2022-08-04T17:34:49.885Z,31.09
2022-08-04T17:37:38.550Z,31.39
2022-08-04T17:40:10.836Z,31.56
2022-08-04T17:42:38.409Z,31.70
2022-08-04T17:47:55.659Z,31.29
2022-08-04T17:50:31.266Z,31.36
2022-08-04T17:53:00.508Z,31.52
2022-08-04T17:55:49.272Z,31.62
2022-08-04T17:58:22.155Z,31.63
2022-08-04T18:01:24.184Z,31.55
2022-08-04T18:03:53.726Z,31.33
2022-08-04T18:06:23.153Z,31.53
2022-08-04T18:08:59.486Z,31.49
2022-08-04T18:11:52.165Z,31.40
2022-08-04T18:14:18.648Z,31.18
2022-08-04T18:16:55.773Z,31.17
2022-08-04T18:19:22.458Z,31.02
2022-08-04T18:21:59.304Z,31.06
2022-08-04T18:24:35.934Z,31.00
2022-08-04T18:27:19.508Z,31.16
2022-08-04T18:30:15.205Z,30.69
2022-08-04T18:32:33.477Z,31.07
2022-08-04T18:35:05.596Z,31.03
2022-08-04T18:38:05.968Z,30.99
2022-08-04T18:40:30.018Z,30.60
2022-08-04T18:43:01.979Z,31.06
2022-08-04T18:45:33.783Z,30.99
2022-08-04T18:48:01.313Z,30.83
2022-08-04T18:50:59.325Z,30.73
2022-08-04T18:53:15.875Z,30.79
2022-08-04T18:55:55.563Z,30.24
2022-08-04T19:01:13.480Z,30.55
2022-08-04T19:03:41.405Z,30.50
2022-08-04T19:06:11.485Z,30.41
2022-08-04T19:08:45.207Z,30.38
2022-08-04T19:11:37.315Z,30.51
2022-08-04T19:14:04.212Z,30.51
2022-08-04T19:16:32.145Z,30.22
2022-08-04T19:19:00.635Z,30.44
2022-08-04T19:21:59.617Z,30.22
2022-08-04T19:24:32.030Z,30.29
2022-08-04T19:27:02.283Z,29.81
2022-08-04T19:29:37.219Z,30.39
2022-08-04T19:32:04.933Z,30.23
2022-08-04T19:34:42.540Z,30.05
2022-08-04T19:37:19.904Z,30.35
2022-08-04T19:40:00.302Z,29.72
2022-08-04T19:42:26.808Z,30.25
2022-08-04T19:44:53.573Z,30.19
2022-08-04T19:48:16.952Z,30.08
2022-08-04T19:50:10.745Z,30.12
2022-08-04T19:52:38.018Z,29.72
2022-08-04T19:57:53.125Z,29.54
2022-08-04T20:00:33.659Z,30.06
2022-08-04T20:03:01.871Z,29.82
2022-08-04T20:08:18.468Z,29.34
2022-08-04T20:10:51.168Z,29.39
2022-08-04T20:13:18.249Z,29.50
2022-08-04T20:15:57.605Z,29.63
2022-08-04T20:18:34.946Z,29.39
2022-08-04T20:21:03.686Z,29.70
2022-08-04T20:23:48.413Z,29.30
2022-08-04T20:26:16.795Z,29.09
2022-08-04T20:31:31.727Z,28.79
2022-08-04T20:33:58.373Z,29.01
2022-08-04T20:36:25.437Z,28.87
2022-08-04T20:38:54.402Z,28.23
2022-08-04T20:41:22.202Z,28.23
2022-08-04T20:43:49.807Z,28.13
2022-08-04T20:46:28.679Z,28.17
2022-08-04T20:48:57.067Z,28.66
2022-08-04T20:51:31.782Z,28.47
2022-08-04T20:54:04.175Z,28.70
2022-08-04T20:56:50.683Z,28.73
2022-08-04T20:59:18.589Z,28.77
2022-08-04T21:01:45.290Z,28.27
2022-08-04T21:04:34.277Z,28.81
2022-08-04T21:07:03.223Z,28.77
2022-08-04T21:09:42.558Z,28.08
2022-08-04T21:12:27.187Z,28.49
2022-08-04T21:14:56.997Z,28.89
2022-08-04T21:17:56.839Z,28.91
2022-08-04T21:20:12.876Z,28.79
2022-08-04T21:22:40.209Z,27.95
2022-08-04T21:25:07.869Z,27.69
2022-08-04T21:27:42.902Z,28.33
2022-08-04T21:30:14.967Z,27.96
2022-08-04T21:32:51.469Z,28.04
2022-08-04T21:35:18.785Z,27.66
2022-08-04T21:37:57.984Z,27.36
2022-08-04T21:40:36.899Z,27.01
2022-08-04T21:43:07.612Z,27.05
2022-08-04T21:48:21.267Z,26.84
2022-08-04T21:50:50.496Z,26.94
2022-08-04T21:53:17.238Z,27.04
2022-08-04T21:56:04.848Z,26.18
2022-08-04T21:58:33.138Z,26.59
2022-08-04T22:00:59.618Z,26.04
2022-08-04T22:03:53.279Z,26.36
2022-08-04T22:06:17.321Z,26.45
2022-08-04T22:08:49.158Z,26.65
2022-08-04T22:14:27.367Z,26.29
2022-08-04T22:16:56.625Z,25.89
2022-08-04T22:19:39.690Z,26.36
2022-08-04T22:22:07.501Z,27.00
2022-08-04T22:24:36.202Z,26.85
2022-08-04T22:27:04.298Z,26.42
2022-08-04T22:29:39.217Z,26.84
2022-08-04T22:32:11.235Z,27.38
2022-08-04T22:34:40.056Z,27.14
2022-08-04T22:37:12.325Z,28.03
2022-08-04T22:39:56.128Z,27.62
2022-08-04T22:42:26.568Z,27.43
2022-08-04T22:44:52.998Z,27.83
2022-08-04T22:47:20.388Z,27.52
2022-08-04T22:49:56.493Z,27.14
2022-08-04T22:52:36.486Z,27.31
2022-08-04T22:55:18.156Z,27.14
2022-08-04T22:58:04.691Z,27.53
2022-08-04T23:00:31.251Z,26.83
2022-08-04T23:02:57.714Z,27.20
2022-08-04T23:05:35.600Z,27.25
2022-08-04T23:08:04.127Z,26.80
2022-08-04T23:10:32.275Z,27.22
2022-08-04T23:12:59.464Z,26.39
2022-08-04T23:15:33.854Z,27.14
2022-08-04T23:18:00.466Z,26.87
2022-08-04T23:20:32.557Z,26.26
2022-08-04T23:23:00.434Z,26.81
2022-08-04T23:26:07.541Z,26.36
2022-08-04T23:28:30.796Z,26.28
2022-08-04T23:30:57.383Z,25.93
2022-08-04T23:33:24.066Z,25.80
2022-08-04T23:36:10.476Z,25.36
2022-08-04T23:38:38.418Z,25.30
2022-08-04T23:41:06.769Z,25.57
2022-08-04T23:43:49.292Z,25.81
2022-08-04T23:46:19.812Z,25.15
2022-08-04T23:48:47.467Z,25.39
2022-08-04T23:51:15.698Z,24.98
2022-08-04T23:54:02.484Z,25.47
2022-08-04T23:56:31.909Z,25.07
2022-08-04T23:59:00.218Z,25.25
